createdAt,value
2019-06-20T04:03:47.824Z,88.092041
2019-06-20T04:07:15.783Z,87.188721
2019-06-20T04:10:51.275Z,87.487793
2019-06-20T04:14:19.239Z,89.196777
2019-06-20T04:17:49.231Z,88.494873
2019-06-20T04:21:17.200Z,87.084961
2019-06-20T04:24:45.169Z,88.092041
2019-06-20T04:28:13.131Z,87.95166
2019-06-20T04:31:41.095Z,88.653564
2019-06-20T04:35:09.045Z,88.452148
2019-06-20T04:38:37.061Z,87.347412
2019-06-20T04:42:05.032Z,88.153076
2019-06-20T04:45:35.359Z,87.95166
2019-06-20T04:49:02.955Z,87.646484
2019-06-20T04:52:30.934Z,86.645508
2019-06-20T04:55:58.895Z,86.340332
2019-06-20T04:59:28.874Z,86.340332
2019-06-20T05:02:56.854Z,86.499023
2019-06-20T05:06:24.851Z,85.998535
2019-06-20T05:09:52.802Z,87.207031
2019-06-20T05:13:20.795Z,87.304688
2019-06-20T05:16:48.758Z,85.394287
2019-06-20T05:20:16.767Z,85.095215
2019-06-20T05:23:44.744Z,84.796143
2019-06-20T05:27:12.843Z,84.753418
2019-06-20T05:30:40.873Z,84.25293
2019-06-20T05:34:08.879Z,84.454346
2019-06-20T05:37:36.907Z,83.349609
2019-06-20T05:41:05.018Z,84.051514
2019-06-20T05:44:32.950Z,84.954834
2019-06-20T05:48:01.895Z,85.113525
2019-06-20T05:51:29.885Z,83.709717
2019-06-20T05:54:57.888Z,83.709717
2019-06-20T05:58:25.909Z,83.47168
2019-06-20T06:01:56.328Z,83.972168
2019-06-20T06:05:23.897Z,81.359863
2019-06-20T06:08:52.866Z,82.867432
2019-06-20T06:12:20.831Z,82.965088
2019-06-20T06:15:48.787Z,82.629395
2019-06-20T06:19:16.848Z,83.630371
2019-06-20T06:22:45.928Z,82.427979
2019-06-20T06:26:13.817Z,82.58667
2019-06-20T06:29:41.793Z,83.48999
2019-06-20T06:33:09.754Z,82.348633
2019-06-20T06:36:37.724Z,83.349609
2019-06-20T06:40:05.687Z,81.744385
2019-06-20T06:43:33.663Z,82.946777
2019-06-20T06:47:05.644Z,84.753418
2019-06-20T06:50:33.594Z,85.150146
2019-06-20T06:54:01.560Z,81.04248
2019-06-20T06:57:29.544Z,83.209229
2019-06-20T07:00:57.507Z,82.208252
2019-06-20T07:04:26.336Z,80.505371
2019-06-20T07:07:54.301Z,82.769775
2019-06-20T07:11:22.279Z,79.766846
2019-06-20T07:14:50.223Z,82.971191
2019-06-20T07:18:18.202Z,81.365967
2019-06-20T07:21:46.178Z,79.327393
2019-06-20T07:25:14.291Z,76.928711
2019-06-20T07:28:42.201Z,76.629639
2019-06-20T07:32:10.213Z,75.830078
2019-06-20T07:35:41.708Z,74.829102
2019-06-20T07:39:08.068Z,76.629639
2019-06-20T07:42:36.057Z,77.325439
2019-06-20T07:46:04.019Z,77.130127
2019-06-20T07:49:32.099Z,79.229736
2019-06-20T07:53:02.693Z,76.989746
2019-06-20T07:56:30.014Z,76.794434
2019-06-20T07:59:57.974Z,78.192139
2019-06-20T08:03:25.946Z,74.79248
2019-06-20T08:06:53.927Z,73.388672
2019-06-20T08:10:22.062Z,74.359131
2019-06-20T08:13:49.949Z,74.755859
2019-06-20T08:17:34.215Z,75.256348
2019-06-20T08:20:52.818Z,75.158691
2019-06-20T08:24:20.786Z,78.015137
2019-06-20T08:27:48.809Z,75.018311
2019-06-20T08:31:16.767Z,77.618408
2019-06-20T08:34:44.719Z,74.420166
2019-06-20T08:38:12.696Z,75.616455
2019-06-20T08:41:40.640Z,73.388672
2019-06-20T08:45:08.621Z,75.744629
2019-06-20T08:48:36.704Z,73.950195
2019-06-20T08:52:05.573Z,73.150635
2019-06-20T08:55:35.596Z,76.843262
2019-06-20T08:59:04.779Z,73.651123
2019-06-20T09:02:34.537Z,74.713135
2019-06-20T09:09:31.573Z,74.078369
2019-06-20T09:12:59.554Z,76.971436
2019-06-20T09:16:28.508Z,76.635742
2019-06-20T09:19:56.469Z,72.314453
2019-06-20T09:23:25.472Z,75.201416
2019-06-20T09:26:55.399Z,71.813965
2019-06-20T09:30:23.395Z,73.510742
2019-06-20T09:33:53.772Z,71.221924
2019-06-20T09:37:25.260Z,70.220947
2019-06-20T09:40:54.837Z,70.422363
2019-06-20T09:44:22.190Z,72.912598
2019-06-20T09:47:52.176Z,70.123291
2019-06-20T09:51:22.353Z,74.67041
2019-06-20T09:54:51.704Z,70.788574
2019-06-20T09:58:21.275Z,70.684814
2019-06-20T10:01:51.430Z,71.282959
2019-06-20T10:05:22.144Z,69.592285
2019-06-20T10:08:52.335Z,70.025635
2019-06-20T10:12:29.580Z,68.29834
2019-06-20T10:15:57.544Z,71.917725
2019-06-20T10:19:25.717Z,72.314453
2019-06-20T10:22:53.665Z,73.712158
2019-06-20T10:26:22.654Z,69.622803
2019-06-20T10:29:51.071Z,69.32373
2019-06-20T10:33:20.522Z,68.597412
2019-06-20T10:36:48.523Z,68.896484
2019-06-20T10:40:17.457Z,69.592285
2019-06-20T10:43:47.507Z,70.025635
2019-06-20T10:47:31.445Z,68.432617
2019-06-20T10:50:53.228Z,73.809814
2019-06-20T10:54:21.176Z,72.314453
2019-06-20T10:57:51.690Z,72.711182
2019-06-20T11:01:19.125Z,72.613525
2019-06-20T11:04:47.737Z,73.443604
2019-06-20T11:08:17.019Z,73.345947
2019-06-20T11:11:47.069Z,77.130127
2019-06-20T11:15:15.913Z,73.382568
2019-06-20T11:18:44.870Z,73.382568
2019-06-20T11:22:13.829Z,73.718262
2019-06-20T11:25:43.654Z,74.615479
2019-06-20T11:29:12.825Z,74.017334
2019-06-20T11:32:41.766Z,75.549316
2019-06-20T11:36:09.756Z,76.9104
2019-06-20T11:39:38.840Z,73.852539
2019-06-20T11:43:08.636Z,75.012207
2019-06-20T11:46:38.544Z,73.815918
2019-06-20T11:50:07.515Z,78.204346
2019-06-20T11:53:36.627Z,74.212646
2019-06-20T11:57:07.411Z,76.11084
2019-06-20T12:00:35.395Z,75.708008
2019-06-20T12:04:03.336Z,75.708008
2019-06-20T12:07:32.298Z,73.614502
2019-06-20T12:11:00.263Z,73.913574
2019-06-20T12:14:28.238Z,74.316406
2019-06-20T12:17:56.206Z,77.209473
2019-06-20T12:21:24.171Z,78.204346
2019-06-20T12:24:52.129Z,77.105713
2019-06-20T12:28:20.102Z,79.602051
2019-06-20T12:31:49.059Z,74.511719
2019-06-20T12:35:19.126Z,74.645996
2019-06-20T12:38:48.245Z,75.048828
2019-06-20T12:42:16.932Z,75.445557
2019-06-20T12:45:44.892Z,75.146484
2019-06-20T12:49:15.834Z,75.250244
2019-06-20T12:52:47.419Z,76.544189
2019-06-20T12:56:15.769Z,76.647949
2019-06-20T12:59:46.233Z,76.947021
2019-06-20T13:03:15.742Z,75.445557
2019-06-20T13:06:44.606Z,74.786377
2019-06-20T13:10:14.546Z,76.080322
2019-06-20T13:13:42.543Z,79.47998
2019-06-20T13:17:10.497Z,75.482178
2019-06-20T13:20:44.219Z,75.982666
2019-06-20T13:24:21.587Z,76.879883
2019-06-20T13:27:50.850Z,76.379395
2019-06-20T13:31:18.500Z,77.91748
2019-06-20T13:34:48.914Z,85.406494
2019-06-20T13:38:16.036Z,92.736816
2019-06-20T13:41:44.009Z,97.821045
2019-06-20T13:45:13.945Z,99.871826
2019-06-20T13:48:43.983Z,99.993896
2019-06-20T13:52:14.845Z,99.993896
2019-06-20T13:55:44.123Z,99.993896
2019-06-20T13:59:11.751Z,99.993896
2019-06-20T14:02:41.330Z,99.993896
2019-06-20T14:06:13.654Z,99.993896
2019-06-20T14:09:43.192Z,99.993896
2019-06-20T14:13:18.908Z,99.993896
2019-06-20T14:16:44.693Z,99.993896
2019-06-20T14:20:13.530Z,99.993896
2019-06-20T14:23:44.269Z,99.993896
2019-06-20T14:27:15.479Z,99.993896
2019-06-20T14:30:44.950Z,99.993896
2019-06-20T14:34:14.381Z,99.993896
2019-06-20T14:37:45.302Z,99.993896
2019-06-20T14:41:25.454Z,99.993896
2019-06-20T14:44:54.816Z,99.993896
2019-06-20T14:48:25.023Z,99.993896
2019-06-20T14:51:55.105Z,99.993896
2019-06-20T14:55:22.860Z,99.993896
2019-06-20T14:58:51.942Z,99.993896
2019-06-20T15:02:20.900Z,99.993896
2019-06-20T15:05:54.623Z,99.993896
2019-06-20T15:09:22.774Z,99.993896
2019-06-20T15:12:53.396Z,99.993896
2019-06-20T15:16:24.373Z,99.993896
2019-06-20T15:19:56.115Z,99.993896
2019-06-20T15:23:25.240Z,99.993896
2019-06-20T15:26:56.629Z,99.993896
2019-06-20T15:30:25.629Z,99.993896
2019-06-20T15:33:55.103Z,99.993896
2019-06-20T15:37:23.946Z,99.993896
2019-06-20T15:40:55.395Z,99.993896
2019-06-20T15:44:24.166Z,99.993896
2019-06-20T15:47:53.281Z,99.993896
2019-06-20T15:51:22.977Z,99.468994
2019-06-20T15:54:53.209Z,97.607422
2019-06-20T15:58:21.192Z,98.864746
2019-06-20T16:01:56.832Z,98.66333
2019-06-20T16:05:26.060Z,98.419189
2019-06-20T16:08:55.157Z,95.507812
2019-06-20T16:12:30.216Z,96.411133
2019-06-20T16:15:58.722Z,96.112061
2019-06-20T16:19:26.704Z,92.297363
2019-06-20T16:22:55.652Z,93.701172
2019-06-20T16:26:23.602Z,91.192627
2019-06-20T16:29:51.561Z,92.852783
2019-06-20T16:33:24.941Z,93.255615
2019-06-20T16:36:51.461Z,91.906738
2019-06-20T16:40:22.379Z,85.693359
2019-06-20T16:43:50.350Z,89.361572
2019-06-20T16:47:18.389Z,86.755371
2019-06-20T16:50:47.216Z,86.956787
2019-06-20T16:54:15.300Z,91.162109
2019-06-20T16:57:43.297Z,89.404297
2019-06-20T17:01:11.256Z,84.490967
2019-06-20T17:04:39.269Z,86.499023
2019-06-20T17:08:08.334Z,85.192871
2019-06-20T17:11:36.325Z,91.107178
2019-06-20T17:15:04.358Z,86.639404
2019-06-20T17:18:33.707Z,86.297607
2019-06-20T17:22:01.830Z,87.799072
2019-06-20T17:25:38.675Z,83.587646
2019-06-20T17:29:08.323Z,84.033203
2019-06-20T17:32:38.979Z,86.798096
2019-06-20T17:36:18.109Z,83.129883
2019-06-20T17:39:43.095Z,90.002441
2019-06-20T17:43:11.917Z,85.235596
2019-06-20T17:46:40.343Z,86.938477
2019-06-20T17:50:10.005Z,83.392334
2019-06-20T17:53:39.601Z,83.990479
2019-06-20T17:57:08.309Z,83.892822
2019-06-20T18:00:38.233Z,87.097168
2019-06-20T18:04:13.543Z,88.702393
2019-06-20T18:08:28.454Z,83.990479
2019-06-20T18:11:57.298Z,83.48999
2019-06-20T18:15:25.898Z,87.701416
2019-06-20T18:18:57.513Z,87.457275
2019-06-20T18:22:26.169Z,86.352539
2019-06-20T18:25:54.596Z,86.694336
2019-06-20T18:29:23.158Z,84.832764
2019-06-20T18:32:52.327Z,88.342285
2019-06-20T18:36:21.119Z,86.981201
2019-06-20T18:39:49.741Z,87.72583
2019-06-20T18:43:18.318Z,87.62207
2019-06-20T18:46:48.515Z,86.462402
2019-06-20T18:50:18.867Z,84.454346
2019-06-20T18:53:50.644Z,89.172363
2019-06-20T18:57:18.352Z,85.296631
2019-06-20T19:00:46.866Z,90.618896
2019-06-20T19:04:15.146Z,87.908936
2019-06-20T19:07:44.290Z,87.805176
2019-06-20T19:11:12.369Z,90.52124
2019-06-20T19:14:40.495Z,90.258789
2019-06-20T19:18:09.248Z,88.153076
2019-06-20T19:21:37.512Z,88.391113
2019-06-20T19:25:06.189Z,89.959717
2019-06-20T19:28:34.940Z,91.064453
2019-06-20T19:32:04.149Z,91.61377
2019-06-20T19:35:44.355Z,92.315674
2019-06-20T19:39:12.482Z,91.912842
2019-06-20T19:42:43.697Z,93.42041
2019-06-20T19:46:11.750Z,93.017578
2019-06-20T19:49:43.924Z,93.927002
2019-06-20T19:53:15.674Z,93.725586
2019-06-20T19:56:45.016Z,93.768311
2019-06-20T20:00:13.154Z,91.955566
2019-06-20T20:03:41.262Z,93.664551
2019-06-20T20:07:09.350Z,94.573975
2019-06-20T20:10:40.521Z,93.865967
2019-06-20T20:14:11.469Z,93.566895
2019-06-20T20:17:39.543Z,94.671631
2019-06-20T20:21:07.632Z,94.873047
2019-06-20T20:24:36.347Z,94.171143
2019-06-20T20:28:05.649Z,92.199707
2019-06-20T20:31:33.863Z,94.616699
2019-06-20T20:35:02.075Z,96.026611
2019-06-20T20:38:30.150Z,95.526123
2019-06-20T20:41:58.383Z,94.317627
2019-06-20T20:45:27.579Z,93.658447
2019-06-20T20:48:57.961Z,93.859863
2019-06-20T20:52:26.181Z,93.756104
2019-06-20T20:55:54.242Z,95.874023
2019-06-20T20:59:23.268Z,94.665527
2019-06-20T21:02:51.350Z,95.672607
2019-06-20T21:06:19.439Z,94.763184
2019-06-20T21:09:47.537Z,93.597412
2019-06-20T21:13:15.707Z,96.31958
2019-06-20T21:16:43.848Z,94.506836
2019-06-20T21:20:11.942Z,93.798828
2019-06-20T21:23:40.123Z,93.237305
2019-06-20T21:27:08.343Z,94.451904
2019-06-20T21:30:37.396Z,93.438721
2019-06-20T21:34:05.626Z,95.355225
2019-06-20T21:37:33.858Z,95.758057
2019-06-20T21:41:02.065Z,96.66748
2019-06-20T21:44:31.762Z,96.160889
2019-06-20T21:47:59.899Z,94.592285
2019-06-20T21:51:28.008Z,93.786621
2019-06-20T21:54:56.113Z,96.972656
2019-06-20T21:58:24.323Z,97.271729
